Time;durP1;ratioP1;P1;durP2;ratioP2;P2;SDS_P1;SDS_P2;PMS_P1;PMS_P2;Temp;Humidity;BMP_temperature;BMP_pressure;BME280_temperature;BME280_humidity;BME280_pressure;Samples;Min_cycle;Max_cycle;Signal;HPM_P1;HPM_P2
2022/05/13 00:00:14;;;;;;;2.53;1.80;;;15.60;99.90;;;;;;5095638;28;20669;-72
2022/05/13 00:02:40;;;;;;;1.67;1.40;;;15.60;99.90;;;;;;5114131;28;20170;-71
2022/05/13 00:05:07;;;;;;;4.20;1.80;;;15.60;99.90;;;;;;5114048;28;20163;-70
2022/05/13 00:07:33;;;;;;;2.07;1.60;;;15.60;99.90;;;;;;5113387;28;20669;-71
2022/05/13 00:10:05;;;;;;;2.57;1.93;;;15.60;99.90;;;;;;5095932;28;20180;-71
2022/05/13 00:12:35;;;;;;;3.10;1.37;;;15.50;99.90;;;;;;5113708;28;20637;-71
2022/05/13 00:15:02;;;;;;;4.47;1.97;;;15.50;99.90;;;;;;5095330;28;20193;-72
2022/05/13 00:17:28;;;;;;;2.83;1.83;;;15.40;99.90;;;;;;5113646;28;20161;-71
2022/05/13 00:19:54;;;;;;;4.73;2.70;;;15.40;99.90;;;;;;5113955;28;20440;-72
2022/05/13 00:22:20;;;;;;;3.83;2.50;;;15.30;99.90;;;;;;5095107;28;20178;-71
2022/05/13 00:24:46;;;;;;;3.30;2.20;;;15.40;99.90;;;;;;5113651;28;20582;-72
2022/05/13 00:27:13;;;;;;;3.37;2.07;;;15.30;99.90;;;;;;5113614;28;20223;-73
2022/05/13 00:29:38;;;;;;;4.70;2.30;;;15.30;99.90;;;;;;5114803;28;20212;-71
2022/05/13 00:32:06;;;;;;;3.73;1.80;;;15.30;99.90;;;;;;5113367;28;20190;-72
2022/05/13 00:34:33;;;;;;;2.60;1.90;;;15.30;99.90;;;;;;5114826;28;20189;-71
2022/05/13 00:37:00;;;;;;;2.17;1.90;;;15.40;99.90;;;;;;5118604;28;20174;-71
2022/05/13 00:39:26;;;;;;;5.73;1.70;;;15.40;99.90;;;;;;5121666;28;20167;-73
2022/05/13 00:41:53;;;;;;;2.73;1.70;;;15.20;99.90;;;;;;5125874;28;20167;-73
2022/05/13 00:44:19;;;;;;;4.67;2.10;;;15.00;99.90;;;;;;5125090;28;20150;-71
2022/05/13 00:46:45;;;;;;;2.80;1.60;;;15.10;99.90;;;;;;5122579;28;20162;-72
2022/05/13 00:49:14;;;;;;;2.00;1.70;;;15.00;99.90;;;;;;5119331;28;20253;-72
2022/05/13 00:51:42;;;;;;;2.23;1.53;;;15.10;99.90;;;;;;5117535;28;20280;-72
2022/05/13 00:54:11;;;;;;;2.10;1.80;;;14.80;99.90;;;;;;5117236;28;20174;-73
2022/05/13 00:56:40;;;;;;;3.03;1.97;;;14.80;99.90;;;;;;5116752;28;20557;-74
2022/05/13 00:59:08;;;;;;;2.90;2.00;;;14.60;99.90;;;;;;5117093;28;20158;-73
2022/05/13 01:01:33;;;;;;;4.57;2.00;;;14.60;99.90;;;;;;5117138;28;20174;-71
2022/05/13 01:04:07;;;;;;;3.70;1.50;;;14.60;99.90;;;;;;5116883;28;20223;-71
2022/05/13 01:06:33;;;;;;;2.00;1.80;;;14.80;99.90;;;;;;5117038;28;20280;-71
2022/05/13 01:09:00;;;;;;;3.00;1.70;;;14.80;99.90;;;;;;5099218;28;20177;-72
2022/05/13 01:11:28;;;;;;;2.90;1.80;;;14.80;99.90;;;;;;5117067;28;20202;-72
2022/05/13 01:14:08;;;;;;;3.53;1.90;;;14.70;99.90;;;;;;5116630;28;20189;-72
2022/05/13 01:18:05;;;;;;;4.80;2.03;;;14.80;99.90;;;;;;5116529;28;20163;-72
2022/05/13 01:19:20;;;;;;;1.70;1.60;;;14.80;99.90;;;;;;5116462;28;20249;-71
2022/05/13 01:21:49;;;;;;;4.17;1.83;;;14.70;99.90;;;;;;5116501;28;20170;-72
2022/05/13 01:24:16;;;;;;;1.87;1.50;;;14.60;99.90;;;;;;5098363;28;20179;-71
2022/05/13 01:26:42;;;;;;;1.70;1.60;;;14.60;99.90;;;;;;5116447;28;20161;-72
2022/05/13 01:29:08;;;;;;;2.93;2.00;;;14.60;99.90;;;;;;5116505;28;20166;-72
2022/05/13 01:31:36;;;;;;;2.90;2.10;;;14.80;99.90;;;;;;5116351;28;20221;-71
2022/05/13 01:34:08;;;;;;;1.90;1.70;;;14.80;99.90;;;;;;5116203;28;20170;-72
2022/05/13 01:36:35;;;;;;;4.47;1.80;;;14.80;99.90;;;;;;5116854;28;20170;-72
2022/05/13 01:39:00;;;;;;;2.43;1.70;;;14.70;99.90;;;;;;5116394;28;20681;-71
2022/05/13 01:41:26;;;;;;;3.83;1.90;;;14.80;99.90;;;;;;5117108;28;20197;-72
2022/05/13 01:43:53;;;;;;;2.87;1.50;;;14.70;99.90;;;;;;5116323;28;20513;-71
2022/05/13 01:46:20;;;;;;;1.87;1.67;;;14.60;99.90;;;;;;5116740;28;20167;-71
2022/05/13 01:48:46;;;;;;;3.47;1.70;;;14.60;99.90;;;;;;5116381;28;20189;-72
2022/05/13 01:51:12;;;;;;;4.03;1.93;;;14.50;99.90;;;;;;5116164;28;20186;-72
2022/05/13 01:53:38;;;;;;;2.00;1.80;;;14.50;99.90;;;;;;5117527;28;20249;-72
2022/05/13 01:56:05;;;;;;;1.93;1.67;;;14.30;99.90;;;;;;5120971;28;20193;-72
2022/05/13 01:58:30;;;;;;;2.57;1.77;;;14.40;99.90;;;;;;5121330;28;20194;-73
2022/05/13 02:00:57;;;;;;;3.57;2.00;;;14.40;99.90;;;;;;5122140;28;20609;-72
2022/05/13 02:06:14;;;;;;;1.80;1.70;;;14.40;99.90;;;;;;5121016;28;20229;-72
2022/05/13 02:08:40;;;;;;;2.30;2.10;;;14.20;99.90;;;;;;5126335;28;20547;-72
2022/05/13 02:11:07;;;;;;;3.80;2.07;;;14.20;99.90;;;;;;5133221;28;20257;-73
2022/05/13 02:13:33;;;;;;;2.43;2.03;;;14.20;99.90;;;;;;5127250;28;20167;-72
2022/05/13 02:15:59;;;;;;;4.00;1.70;;;14.30;99.90;;;;;;5109651;28;20274;-72
2022/05/13 02:18:25;;;;;;;4.53;1.93;;;14.30;99.90;;;;;;5127794;28;20159;-72
2022/05/13 02:20:50;;;;;;;3.53;1.97;;;14.30;99.90;;;;;;5127549;28;20162;-72
2022/05/13 02:23:20;;;;;;;4.23;1.90;;;14.30;99.90;;;;;;5124961;28;20163;-72
2022/05/13 02:25:46;;;;;;;7.33;1.83;;;14.30;99.90;;;;;;5124838;28;20163;-72
2022/05/13 02:28:12;;;;;;;3.17;2.30;;;14.20;99.90;;;;;;5124838;28;20162;-73
2022/05/13 02:30:38;;;;;;;2.60;2.40;;;14.10;99.90;;;;;;5120614;28;20243;-74
2022/05/13 02:33:04;;;;;;;4.03;2.27;;;13.90;99.90;;;;;;5120499;28;20218;-72
2022/05/13 02:35:29;;;;;;;2.50;1.90;;;14.00;99.90;;;;;;5125685;28;20187;-72
2022/05/13 02:37:56;;;;;;;3.43;1.87;;;13.90;99.90;;;;;;5126448;28;20163;-71
2022/05/13 02:41:11;;;;;;;2.40;2.13;;;13.90;99.90;;;;;;5124558;28;20181;-71
2022/05/13 02:43:08;;;;;;;2.87;1.90;;;14.00;99.90;;;;;;5123126;28;20305;-72
2022/05/13 02:45:33;;;;;;;4.23;1.83;;;13.90;99.90;;;;;;5118503;28;20262;-71
2022/05/13 02:47:59;;;;;;;2.57;1.90;;;14.00;99.90;;;;;;5132488;27;20178;-73
2022/05/13 02:50:25;;;;;;;2.77;1.80;;;13.90;99.90;;;;;;5116333;28;20170;-73
2022/05/13 02:52:51;;;;;;;3.40;2.00;;;13.90;99.90;;;;;;5119007;28;20278;-73
2022/05/13 02:55:19;;;;;;;7.67;3.57;;;13.70;99.90;;;;;;5120148;28;20166;-73
2022/05/13 02:57:45;;;;;;;2.10;1.70;;;13.70;99.90;;;;;;5121501;28;20169;-71
2022/05/13 03:00:12;;;;;;;2.53;1.80;;;13.70;99.90;;;;;;5118839;28;20245;-73
2022/05/13 03:02:38;;;;;;;2.70;2.00;;;13.80;99.90;;;;;;5117428;28;20653;-72
2022/05/13 03:05:06;;;;;;;3.13;2.63;;;13.70;99.90;;;;;;5097714;28;20250;-72
2022/05/13 03:07:32;;;;;;;3.17;2.17;;;13.60;99.90;;;;;;5115466;28;20264;-71
2022/05/13 03:09:58;;;;;;;3.70;2.20;;;13.50;99.90;;;;;;5114229;28;20166;-73
2022/05/13 03:12:23;;;;;;;2.27;2.00;;;13.60;99.90;;;;;;5114188;28;20186;-71
2022/05/13 03:14:49;;;;;;;3.43;2.10;;;13.60;99.90;;;;;;5096559;28;20181;-73
2022/05/13 03:17:15;;;;;;;2.37;1.80;;;13.60;99.90;;;;;;5114297;28;20162;-72
2022/05/13 03:19:40;;;;;;;2.10;1.90;;;13.70;99.90;;;;;;5114268;28;20204;-72
2022/05/13 03:22:07;;;;;;;2.93;2.13;;;13.80;99.90;;;;;;5113954;28;20300;-71
2022/05/13 03:24:33;;;;;;;2.43;1.90;;;13.70;99.90;;;;;;5114102;28;20507;-72
2022/05/13 03:26:59;;;;;;;2.37;2.03;;;13.70;99.90;;;;;;5114605;28;20166;-72
2022/05/13 03:29:24;;;;;;;2.60;2.17;;;13.70;99.90;;;;;;5115427;28;20158;-73
2022/05/13 03:31:50;;;;;;;4.43;1.97;;;13.50;99.90;;;;;;5116001;28;20250;-73
2022/05/13 03:34:16;;;;;;;3.97;2.50;;;13.50;99.90;;;;;;5114059;28;20219;-72
2022/05/13 03:36:42;;;;;;;3.60;2.10;;;13.50;99.90;;;;;;5114403;28;20163;-72
2022/05/13 03:39:08;;;;;;;3.57;2.47;;;13.50;99.90;;;;;;5096014;28;20212;-73
2022/05/13 03:41:34;;;;;;;5.60;2.07;;;13.40;99.90;;;;;;5114339;28;20166;-71
2022/05/13 03:44:00;;;;;;;3.83;2.03;;;13.60;99.90;;;;;;5114198;28;20165;-72
2022/05/13 03:46:25;;;;;;;2.93;2.33;;;13.70;99.90;;;;;;5114170;28;20169;-70
2022/05/13 03:48:51;;;;;;;3.33;2.23;;;13.80;99.90;;;;;;5114413;28;20223;-72
2022/05/13 03:51:18;;;;;;;4.30;2.07;;;13.70;99.90;;;;;;5115385;28;20198;-71
2022/05/13 03:53:43;;;;;;;3.50;2.00;;;13.50;99.90;;;;;;5098089;28;20589;-72
2022/05/13 03:56:09;;;;;;;2.90;2.10;;;13.30;99.90;;;;;;5117997;28;20201;-72
2022/05/13 03:58:35;;;;;;;3.37;2.10;;;13.40;99.90;;;;;;5122876;28;20158;-70
2022/05/13 04:01:02;;;;;;;3.83;2.10;;;13.40;99.90;;;;;;5130603;28;20214;-73
2022/05/13 04:03:28;;;;;;;2.50;1.97;;;13.20;99.90;;;;;;5131536;28;20160;-73
2022/05/13 04:08:56;;;;;;;2.10;1.90;;;13.40;99.90;;;;;;5124806;28;20187;-73
2022/05/13 04:11:28;;;;;;;4.57;2.30;;;13.30;99.90;;;;;;5103229;28;20212;-72
2022/05/13 04:16:38;;;;;;;2.47;2.27;;;13.00;99.90;;;;;;5121472;28;20601;-71
2022/05/13 04:19:04;;;;;;;4.27;2.57;;;13.30;99.90;;;;;;5119990;28;20162;-73
2022/05/13 04:21:32;;;;;;;3.47;2.27;;;13.30;99.90;;;;;;5117669;27;20208;-72
2022/05/13 04:24:01;;;;;;;4.67;2.17;;;13.50;99.90;;;;;;5119782;28;20170;-72
2022/05/13 04:26:27;;;;;;;4.03;2.63;;;13.70;99.90;;;;;;5119811;28;20162;-71
2022/05/13 04:28:54;;;;;;;2.57;2.13;;;13.60;99.90;;;;;;5136929;27;20517;-72
2022/05/13 04:31:27;;;;;;;3.27;2.13;;;13.80;99.90;;;;;;5119676;28;20201;-72
2022/05/13 04:33:54;;;;;;;3.40;2.27;;;13.90;99.90;;;;;;5118003;28;20175;-72
2022/05/13 04:36:21;;;;;;;3.57;2.40;;;13.90;99.90;;;;;;5117778;28;20180;-73
2022/05/13 04:38:47;;;;;;;2.73;2.30;;;14.00;99.90;;;;;;5118236;28;20169;-72
2022/05/13 04:43:58;;;;;;;3.60;2.60;;;14.10;99.90;;;;;;5120935;28;20511;-72
2022/05/13 04:46:24;;;;;;;3.67;2.33;;;14.10;99.90;;;;;;5137961;27;20223;-72
2022/05/13 04:48:51;;;;;;;2.63;2.30;;;14.20;99.90;;;;;;5119985;28;20572;-73
2022/05/13 04:51:17;;;;;;;6.87;2.87;;;14.40;99.90;;;;;;5118113;28;20194;-73
2022/05/13 04:53:44;;;;;;;3.80;2.77;;;14.20;99.90;;;;;;5119777;28;20174;-73
2022/05/13 04:56:10;;;;;;;3.90;2.70;;;14.10;99.90;;;;;;5120355;28;20185;-72
2022/05/13 04:58:38;;;;;;;5.70;2.93;;;14.30;99.90;;;;;;5117901;28;20523;-71
2022/05/13 05:01:05;;;;;;;6.47;2.73;;;14.40;99.90;;;;;;5115834;28;20162;-71
2022/05/13 05:03:32;;;;;;;5.60;3.40;;;14.40;99.90;;;;;;5111047;28;20163;-72
2022/05/13 05:05:59;;;;;;;8.13;2.73;;;14.30;99.90;;;;;;5112922;27;20245;-75
2022/05/13 05:08:26;;;;;;;3.73;2.60;;;14.60;99.90;;;;;;5111575;28;20633;-72
2022/05/13 05:10:52;;;;;;;2.80;2.27;;;14.50;99.90;;;;;;5110547;27;20178;-72
2022/05/13 05:13:22;;;;;;;4.23;2.90;;;14.50;99.90;;;;;;5119683;28;20645;-71
2022/05/13 05:15:48;;;;;;;10.27;2.87;;;14.30;99.90;;;;;;5115885;28;20170;-71
2022/05/13 05:18:14;;;;;;;2.73;2.40;;;14.30;99.90;;;;;;5115440;28;20590;-71
2022/05/13 05:20:42;;;;;;;5.97;3.13;;;14.30;99.90;;;;;;5116031;28;20180;-73
2022/05/13 05:23:22;;;;;;;9.17;2.83;;;14.40;99.90;;;;;;5120221;28;20208;-73
2022/05/13 05:25:48;;;;;;;3.77;2.60;;;14.50;99.90;;;;;;5143871;28;20193;-72
2022/05/13 05:28:15;;;;;;;3.90;2.73;;;14.60;99.90;;;;;;5140173;28;20189;-72
2022/05/13 05:30:42;;;;;;;3.90;2.77;;;14.80;99.90;;;;;;5136441;28;20161;-72
2022/05/13 05:33:09;;;;;;;6.87;2.70;;;14.80;99.90;;;;;;5135872;28;20161;-71
2022/05/13 05:35:34;;;;;;;6.23;2.73;;;14.90;99.90;;;;;;5136987;28;20246;-72
2022/05/13 05:38:01;;;;;;;5.77;3.20;;;14.90;99.90;;;;;;5140184;28;20182;-72
2022/05/13 05:40:27;;;;;;;4.27;2.83;;;14.90;99.90;;;;;;5123950;28;20631;-70
2022/05/13 05:42:52;;;;;;;6.80;3.10;;;14.90;99.90;;;;;;5141029;28;20166;-73
2022/05/13 05:45:22;;;;;;;3.67;2.87;;;15.00;99.90;;;;;;5143025;28;20585;-70
2022/05/13 05:47:50;;;;;;;6.43;2.60;;;15.00;99.90;;;;;;5141555;28;20166;-70
2022/05/13 05:50:18;;;;;;;3.67;2.60;;;15.10;99.90;;;;;;5139291;28;20298;-71
2022/05/13 05:52:44;;;;;;;4.33;2.90;;;15.30;99.90;;;;;;5140200;28;20185;-72
2022/05/13 05:57:58;;;;;;;4.27;2.87;;;15.20;99.90;;;;;;5136833;28;20161;-72
2022/05/13 06:00:24;;;;;;;5.23;3.07;;;15.40;99.90;;;;;;5141053;28;20173;-72
2022/05/13 06:02:49;;;;;;;4.93;3.13;;;15.50;99.90;;;;;;5141548;28;20506;-73
2022/05/13 06:05:15;;;;;;;6.40;3.30;;;15.50;99.90;;;;;;5101283;27;1198560;-72
2022/05/13 06:07:41;;;;;;;8.07;3.07;;;15.80;99.90;;;;;;5138409;27;20157;-72
2022/05/13 06:10:07;;;;;;;3.87;3.10;;;15.90;99.90;;;;;;5136023;27;20162;-72
2022/05/13 06:12:33;;;;;;;4.77;3.17;;;16.00;99.90;;;;;;5136018;27;20204;-71
2022/05/13 06:14:58;;;;;;;6.00;3.23;;;16.10;99.90;;;;;;5136071;27;20573;-72
2022/05/13 06:17:24;;;;;;;7.00;3.20;;;16.20;99.90;;;;;;5136309;27;20210;-72
2022/05/13 06:19:50;;;;;;;3.97;3.00;;;16.20;99.90;;;;;;5137370;27;20153;-72
2022/05/13 06:22:16;;;;;;;3.87;2.83;;;16.20;99.90;;;;;;5136146;27;20173;-72
2022/05/13 06:24:41;;;;;;;4.00;2.70;;;16.40;99.90;;;;;;5136213;27;20229;-71
2022/05/13 06:27:07;;;;;;;5.25;3.33;;;16.40;99.90;;;;;;5136018;27;20154;-72
2022/05/13 06:29:35;;;;;;;4.33;3.10;;;16.50;99.90;;;;;;5136034;27;20172;-70
2022/05/13 06:32:00;;;;;;;4.72;2.65;;;16.60;99.90;;;;;;5138985;27;20197;-73
2022/05/13 06:34:27;;;;;;;6.18;2.92;;;16.80;99.90;;;;;;5144278;27;20232;-73
2022/05/13 06:36:52;;;;;;;7.60;3.00;;;17.00;99.90;;;;;;5144844;27;20185;-72
2022/05/13 06:39:18;;;;;;;8.30;3.00;;;17.20;99.90;;;;;;5128280;27;20177;-71
2022/05/13 06:41:44;;;;;;;4.45;2.67;;;17.30;99.90;;;;;;5136430;27;20162;-72
2022/05/13 06:44:10;;;;;;;6.40;3.20;;;17.60;99.90;;;;;;5135931;27;20273;-71
2022/05/13 06:46:39;;;;;;;5.45;2.95;;;17.60;99.90;;;;;;5136010;27;20169;-70
2022/05/13 06:49:06;;;;;;;4.38;2.90;;;17.80;99.90;;;;;;5135664;27;20149;-73
2022/05/13 06:51:33;;;;;;;4.10;2.40;;;17.90;99.90;;;;;;5135461;27;20536;-72
2022/05/13 06:54:06;;;;;;;7.82;2.85;;;18.10;99.90;;;;;;5135034;27;20161;-72
2022/05/13 06:56:32;;;;;;;5.03;2.40;;;18.00;99.90;;;;;;5135478;27;20161;-72
2022/05/13 06:58:58;;;;;;;5.15;2.50;;;18.30;99.90;;;;;;5135415;27;20150;-72
2022/05/13 07:01:24;;;;;;;8.48;2.58;;;18.50;99.90;;;;;;5151554;27;20177;-73
2022/05/13 07:03:50;;;;;;;5.70;3.38;;;18.70;99.90;;;;;;5135566;27;20166;-73
2022/05/13 07:06:16;;;;;;;4.90;2.40;;;19.00;99.90;;;;;;5113515;28;20248;-71
2022/05/13 07:08:41;;;;;;;6.28;2.53;;;19.30;99.90;;;;;;5114082;28;20265;-71
2022/05/13 07:11:07;;;;;;;7.80;3.10;;;19.30;99.90;;;;;;5114828;28;20575;-72
2022/05/13 07:13:34;;;;;;;6.25;2.70;;;19.10;99.90;;;;;;5115169;28;20162;-72
2022/05/13 07:16:00;;;;;;;6.45;2.90;;;18.90;99.90;;;;;;5114693;28;20158;-71
2022/05/13 07:18:25;;;;;;;3.30;2.92;;;19.00;99.90;;;;;;5114857;28;20654;-70
2022/05/13 07:20:51;;;;;;;8.45;3.05;;;19.00;99.90;;;;;;5114557;28;20621;-72
2022/05/13 07:23:17;;;;;;;6.38;2.45;;;18.80;99.90;;;;;;5113665;28;20181;-73
2022/05/13 07:25:42;;;;;;;12.40;4.80;;;19.00;99.90;;;;;;5115255;28;20197;-73
2022/05/13 07:28:08;;;;;;;13.52;4.20;;;19.30;99.90;;;;;;5115095;28;20582;-75
2022/05/13 07:30:34;;;;;;;11.50;3.38;;;19.60;99.90;;;;;;5114956;28;20159;-72
2022/05/13 07:32:59;;;;;;;14.63;4.95;;;19.70;99.90;;;;;;5115095;28;20204;-74
2022/05/13 07:35:25;;;;;;;18.77;4.40;;;19.80;99.90;;;;;;5115724;28;20170;-72
2022/05/13 07:37:51;;;;;;;11.48;5.28;;;19.90;99.90;;;;;;5114373;28;20660;-72
2022/05/13 07:43:03;;;;;;;4.07;3.17;;;20.00;99.90;;;;;;5116884;28;20173;-74
2022/05/13 07:45:29;;;;;;;17.77;5.28;;;20.20;99.90;;;;;;5116228;28;20150;-72
2022/05/13 07:47:55;;;;;;;9.52;4.10;;;20.40;98.80;;;;;;5115760;28;20218;-73
2022/05/13 07:50:22;;;;;;;5.32;2.67;;;20.20;97.50;;;;;;5115361;28;20216;-74
2022/05/13 07:52:49;;;;;;;7.07;2.42;;;20.20;99.10;;;;;;5114717;28;20277;-73
2022/05/13 07:55:15;;;;;;;7.50;2.20;;;20.20;97.00;;;;;;5115458;28;20162;-72
2022/05/13 07:57:43;;;;;;;2.55;1.70;;;20.40;96.60;;;;;;5115555;28;20215;-72
2022/05/13 08:00:32;;;;;;;2.92;1.77;;;20.40;96.00;;;;;;5115466;28;20197;-74
2022/05/13 08:03:08;;;;;;;7.05;1.65;;;20.30;93.00;;;;;;5115815;28;20253;-74
2022/05/13 08:05:40;;;;;;;5.55;2.00;;;20.60;92.20;;;;;;5117818;28;20309;-73
2022/05/13 08:08:07;;;;;;;1.98;1.60;;;20.70;90.20;;;;;;5116454;28;20635;-72
2022/05/13 08:10:35;;;;;;;5.93;2.50;;;21.00;85.50;;;;;;5134843;28;20165;-74
2022/05/13 08:13:01;;;;;;;6.28;1.90;;;21.00;85.00;;;;;;5134333;28;20830;-74
2022/05/13 08:15:27;;;;;;;6.40;1.70;;;20.80;85.20;;;;;;5116787;28;20177;-74
2022/05/13 08:17:53;;;;;;;2.65;1.65;;;21.10;84.60;;;;;;5137549;28;20164;-73
2022/05/13 08:20:18;;;;;;;4.85;1.95;;;21.20;79.90;;;;;;5133814;28;20150;-73
2022/05/13 08:22:45;;;;;;;2.13;1.42;;;21.10;75.00;;;;;;5134472;28;20165;-74
2022/05/13 08:25:11;;;;;;;4.03;1.90;;;21.20;75.40;;;;;;5134635;28;20195;-73
2022/05/13 08:27:37;;;;;;;2.35;1.58;;;21.40;75.00;;;;;;5134025;28;20198;-74
2022/05/13 08:30:04;;;;;;;6.35;1.80;;;21.40;75.70;;;;;;5135290;28;20177;-74
2022/05/13 08:32:30;;;;;;;2.67;1.70;;;21.50;73.60;;;;;;5134494;28;20200;-75
2022/05/13 08:34:56;;;;;;;5.82;1.70;;;21.40;75.10;;;;;;5134850;28;20705;-73
2022/05/13 08:37:22;;;;;;;3.22;1.90;;;21.50;75.00;;;;;;5116205;28;20165;-73
2022/05/13 08:39:48;;;;;;;6.70;2.00;;;21.50;74.50;;;;;;5134635;28;20524;-72
2022/05/13 08:42:22;;;;;;;4.82;1.77;;;21.70;74.50;;;;;;5134661;28;20209;-73
2022/05/13 08:44:49;;;;;;;7.18;1.67;;;21.60;74.10;;;;;;5136633;28;20189;-75
2022/05/13 08:47:28;;;;;;;4.53;2.00;;;21.70;74.70;;;;;;5141778;28;20193;-72
2022/05/13 08:50:20;;;;;;;1.83;1.52;;;21.80;74.10;;;;;;5162804;27;20493;-73
2022/05/13 08:53:08;;;;;;;3.30;1.55;;;21.50;75.70;;;;;;5144804;28;20243;-74
2022/05/13 08:55:43;;;;;;;4.85;1.73;;;21.50;74.50;;;;;;5146122;27;20186;-75
2022/05/13 08:58:22;;;;;;;6.13;1.90;;;21.60;73.70;;;;;;5146309;27;20235;-77
2022/05/13 09:00:50;;;;;;;4.25;1.88;;;21.70;74.50;;;;;;5121124;27;20189;-74
2022/05/13 09:03:25;;;;;;;3.08;1.95;;;21.70;73.80;;;;;;5138772;27;20449;-71
2022/05/13 09:06:12;;;;;;;4.50;1.88;;;21.40;72.80;;;;;;5154921;27;20281;-72
2022/05/13 09:08:42;;;;;;;10.43;1.95;;;21.60;72.90;;;;;;5138823;27;20157;-71
2022/05/13 09:11:33;;;;;;;3.65;1.60;;;21.90;71.90;;;;;;5137492;27;20280;-74
2022/05/13 09:14:09;;;;;;;2.83;1.92;;;22.10;71.10;;;;;;5110195;27;20205;-72
2022/05/13 09:16:49;;;;;;;4.18;1.75;;;21.90;70.40;;;;;;5153841;27;20173;-74
2022/05/13 09:19:33;;;;;;;6.20;2.00;;;21.90;71.20;;;;;;5153875;27;20196;-71
2022/05/13 09:21:59;;;;;;;4.40;2.05;;;21.80;70.00;;;;;;5136953;27;20238;-73
2022/05/13 09:24:25;;;;;;;2.78;1.60;;;22.00;69.20;;;;;;5119963;27;20254;-74
2022/05/13 09:26:51;;;;;;;2.38;1.58;;;22.10;70.00;;;;;;5155318;27;20178;-73
2022/05/13 09:29:18;;;;;;;3.08;1.75;;;22.30;68.60;;;;;;5138006;27;20161;-71
2022/05/13 09:32:07;;;;;;;6.40;2.30;;;22.20;68.40;;;;;;5138818;27;20201;-73
2022/05/13 09:34:55;;;;;;;2.35;1.42;;;22.10;68.10;;;;;;5140360;27;20162;-71
2022/05/13 09:37:24;;;;;;;3.55;1.60;;;22.20;69.00;;;;;;5144687;27;20189;-75
2022/05/13 09:40:24;;;;;;;3.78;1.90;;;22.20;67.00;;;;;;5148444;27;20237;-71
2022/05/13 09:42:53;;;;;;;5.15;2.13;;;22.20;66.20;;;;;;5094830;27;20514;-72
2022/05/13 09:45:31;;;;;;;2.90;1.90;;;21.90;66.30;;;;;;5146928;27;20227;-75
2022/05/13 09:48:06;;;;;;;3.08;1.63;;;22.00;68.30;;;;;;5142485;27;20503;-75
2022/05/13 09:50:42;;;;;;;4.18;2.10;;;22.20;66.20;;;;;;5142439;27;20186;-73
2022/05/13 09:53:30;;;;;;;3.55;1.90;;;22.40;66.50;;;;;;5144171;27;20197;-75
2022/05/13 09:55:58;;;;;;;5.60;1.98;;;22.70;66.50;;;;;;5141189;27;20161;-74
2022/05/13 09:58:36;;;;;;;7.47;1.88;;;23.00;64.20;;;;;;5126114;27;20184;-75
2022/05/13 10:01:13;;;;;;;2.45;1.90;;;23.00;64.00;;;;;;5143060;27;20177;-73
2022/05/13 10:03:41;;;;;;;2.38;1.77;;;22.60;65.50;;;;;;5145774;27;20688;-74
2022/05/13 10:06:09;;;;;;;2.42;1.70;;;22.90;64.60;;;;;;5144060;27;20237;-74
2022/05/13 10:08:51;;;;;;;9.90;1.73;;;22.70;64.20;;;;;;5135605;27;20207;-75
2022/05/13 10:14:26;;;;;;;2.88;1.90;;;22.90;64.50;;;;;;5136266;27;20165;-73
2022/05/13 10:16:55;;;;;;;5.82;1.92;;;23.00;63.80;;;;;;5136697;27;20214;-72
2022/05/13 10:19:29;;;;;;;5.50;2.10;;;22.70;65.20;;;;;;5136890;27;20476;-74
2022/05/13 10:22:22;;;;;;;5.13;2.47;;;22.60;64.80;;;;;;5137003;27;20591;-74
2022/05/13 10:24:52;;;;;;;3.20;2.10;;;22.80;64.20;;;;;;5129611;27;20197;-74
2022/05/13 10:27:32;;;;;;;4.78;2.00;;;23.00;63.30;;;;;;5139250;27;20149;-70
2022/05/13 10:30:24;;;;;;;6.97;2.10;;;22.50;63.00;;;;;;5139890;27;20233;-73
2022/05/13 10:33:04;;;;;;;5.53;2.20;;;21.90;65.50;;;;;;5138852;27;20193;-75
2022/05/13 10:35:39;;;;;;;4.80;2.60;;;21.60;66.60;;;;;;5124807;27;20333;-74
2022/05/13 10:38:36;;;;;;;6.90;2.00;;;22.10;66.20;;;;;;5125356;27;20600;-74
2022/05/13 10:41:29;;;;;;;4.57;1.50;;;22.10;67.40;;;;;;5116488;27;20208;-74
2022/05/13 10:44:08;;;;;;;4.20;1.77;;;22.40;64.10;;;;;;5126105;27;20173;-71
2022/05/13 10:46:47;;;;;;;5.78;1.80;;;22.80;62.90;;;;;;5142268;27;20161;-73
2022/05/13 10:49:13;;;;;;;3.97;1.80;;;22.60;62.50;;;;;;5142307;27;20154;-72
2022/05/13 10:52:08;;;;;;;5.13;1.77;;;22.00;63.00;;;;;;5140172;27;20525;-74
2022/05/13 10:54:37;;;;;;;3.50;1.55;;;22.10;62.90;;;;;;5111704;27;20208;-76
2022/05/13 10:57:25;;;;;;;5.82;2.05;;;22.30;62.80;;;;;;5140574;27;20165;-72
2022/05/13 11:00:13;;;;;;;2.60;1.50;;;22.30;63.60;;;;;;5140659;27;20193;-73
2022/05/13 11:03:00;;;;;;;2.70;1.73;;;22.60;62.50;;;;;;5142307;27;20183;-73
2022/05/13 11:05:44;;;;;;;2.65;1.52;;;22.70;61.00;;;;;;5125708;27;20178;-72
2022/05/13 11:08:15;;;;;;;2.85;1.63;;;23.10;60.00;;;;;;5148039;27;20550;-71
2022/05/13 11:11:16;;;;;;;6.25;1.73;;;23.30;58.60;;;;;;5140943;27;20331;-73
2022/05/13 11:13:52;;;;;;;5.88;1.75;;;23.20;58.40;;;;;;5131698;27;20205;-73
2022/05/13 11:16:36;;;;;;;2.20;1.60;;;23.00;60.00;;;;;;5134909;27;20642;-75
2022/05/13 11:19:26;;;;;;;4.97;2.00;;;23.00;58.90;;;;;;5116135;27;20184;-74
2022/05/13 11:22:12;;;;;;;3.00;1.60;;;23.20;59.10;;;;;;5135142;27;20181;-74
2022/05/13 11:28:32;;;;;;;3.60;1.63;;;22.50;59.50;;;;;;5135051;27;20164;-75
2022/05/13 11:31:16;;;;;;;3.08;1.52;;;22.70;58.90;;;;;;5116792;27;20184;-72
2022/05/13 11:33:48;;;;;;;2.53;1.45;;;23.00;58.10;;;;;;5150364;27;20174;-73
2022/05/13 11:36:41;;;;;;;9.52;1.77;;;23.30;57.40;;;;;;5134790;27;20567;-76
2022/05/13 11:39:39;;;;;;;6.00;1.52;;;23.40;57.90;;;;;;5134353;27;20161;-74
2022/05/13 11:42:15;;;;;;;3.53;1.55;;;23.40;57.30;;;;;;5080327;27;20222;-72
2022/05/13 11:45:12;;;;;;;5.18;1.42;;;22.80;58.60;;;;;;5134568;27;20165;-74
2022/05/13 11:48:11;;;;;;;6.53;1.70;;;23.30;58.70;;;;;;5135127;27;20188;-77
2022/05/13 11:50:37;;;;;;;3.25;1.60;;;23.70;61.70;;;;;;5152828;27;20181;-72
2022/05/13 11:53:03;;;;;;;2.95;1.40;;;23.80;56.70;;;;;;5138181;27;20539;-75
2022/05/13 11:55:41;;;;;;;54.58;36.72;;;23.40;61.00;;;;;;5138656;27;20197;-79
2022/05/13 11:58:08;;;;;;;61.75;42.50;;;23.40;62.00;;;;;;5141086;28;20164;-75
2022/05/13 12:00:40;;;;;;;11.90;4.85;;;23.30;64.00;;;;;;5141020;28;20180;-76
2022/05/13 12:03:08;;;;;;;6.43;3.38;;;22.80;59.80;;;;;;5144475;28;20168;-72
2022/05/13 12:05:57;;;;;;;8.38;3.22;;;22.90;59.40;;;;;;5140766;28;20233;-72
2022/05/13 12:08:31;;;;;;;4.53;2.10;;;23.10;59.10;;;;;;5108107;28;20192;-73
2022/05/13 12:11:02;;;;;;;3.25;1.73;;;23.30;59.80;;;;;;5149990;27;20584;-74
2022/05/13 12:13:43;;;;;;;4.57;1.70;;;23.30;60.90;;;;;;5133799;28;20250;-72
2022/05/13 12:16:36;;;;;;;2.45;1.50;;;23.50;60.80;;;;;;5134479;28;20196;-69
2022/05/13 12:19:28;;;;;;;4.95;1.85;;;23.40;59.90;;;;;;5134514;28;20164;-73
2022/05/13 12:22:29;;;;;;;8.05;1.90;;;23.10;59.80;;;;;;5116382;28;20196;-71
2022/05/13 12:25:03;;;;;;;1.90;1.70;;;23.30;60.30;;;;;;5123498;28;20189;-73
2022/05/13 12:27:46;;;;;;;3.75;1.60;;;23.50;60.00;;;;;;5134885;28;20236;-71
2022/05/13 12:30:42;;;;;;;3.83;1.80;;;22.90;60.60;;;;;;5135012;27;20173;-72
2022/05/13 12:33:24;;;;;;;4.80;1.70;;;22.80;61.00;;;;;;5125198;27;20439;-71
2022/05/13 12:39:06;;;;;;;2.45;1.52;;;23.40;58.40;;;;;;5138601;27;20241;-72
2022/05/13 12:41:46;;;;;;;2.40;1.70;;;23.00;58.40;;;;;;5137705;27;20165;-71
2022/05/13 12:44:30;;;;;;;4.85;1.98;;;23.00;58.60;;;;;;5119628;27;20629;-71
2022/05/13 12:47:15;;;;;;;2.00;1.55;;;23.40;58.10;;;;;;5137924;27;20313;-72
2022/05/13 12:49:52;;;;;;;3.70;1.70;;;23.10;57.50;;;;;;5137687;27;20593;-70
2022/05/13 12:52:27;;;;;;;8.77;1.90;;;22.80;58.00;;;;;;5138197;27;20295;-71
2022/05/13 12:55:21;;;;;;;1.75;1.50;;;22.80;58.40;;;;;;5138002;27;20158;-71
2022/05/13 12:58:00;;;;;;;6.63;2.08;;;23.30;58.50;;;;;;5137604;27;20601;-72
2022/05/13 13:00:47;;;;;;;4.00;1.80;;;23.20;58.30;;;;;;5137562;27;20166;-70
2022/05/13 13:03:14;;;;;;;5.72;2.08;;;23.30;58.20;;;;;;5138084;27;20169;-70
2022/05/13 13:05:46;;;;;;;6.72;1.67;;;23.70;57.50;;;;;;5137686;27;20219;-72
2022/05/13 13:08:18;;;;;;;5.13;1.58;;;24.10;57.60;;;;;;5137690;27;20220;-73
2022/05/13 13:10:50;;;;;;;5.60;2.30;;;24.20;57.00;;;;;;5138217;27;20247;-71
2022/05/13 13:13:28;;;;;;;9.85;3.22;;;23.80;56.30;;;;;;5138813;27;20215;-68
2022/05/13 13:15:59;;;;;;;4.70;1.75;;;23.20;56.30;;;;;;5139716;27;20184;-72
2022/05/13 13:18:33;;;;;;;5.95;1.60;;;23.20;57.40;;;;;;5138204;27;20219;-70
2022/05/13 13:21:03;;;;;;;3.92;1.80;;;23.50;57.10;;;;;;5119188;27;20266;-69
2022/05/13 13:23:33;;;;;;;5.57;1.80;;;23.50;56.20;;;;;;5119153;27;20169;-71
2022/05/13 13:26:02;;;;;;;7.80;1.80;;;23.30;57.40;;;;;;5137467;27;20162;-72
2022/05/13 13:28:33;;;;;;;7.78;1.70;;;23.50;56.40;;;;;;5118537;27;20178;-70
2022/05/13 13:31:04;;;;;;;2.30;1.58;;;23.20;56.00;;;;;;5137209;27;20197;-71